Time;durP1;ratioP1;P1;durP2;ratioP2;P2;SDS_P1;SDS_P2;PMS_P1;PMS_P2;Temp;Humidity;BMP_temperature;BMP_pressure;BME280_temperature;BME280_humidity;BME280_pressure;Samples;Min_cycle;Max_cycle;Signal;HPM_P1;HPM_P2
2020/12/31 00:02:06;;;;;;;1.38;0.90;;;;;;;;;;5074094;28;20540;-50
2020/12/31 00:04:33;;;;;;;1.23;0.98;;;;;;;;;;5072864;28;20190;-49
2020/12/31 00:06:59;;;;;;;0.80;0.80;;;;;;;;;;5072801;28;20209;-49
2020/12/31 00:09:25;;;;;;;1.00;0.90;;;;;;;;;;5073018;28;20473;-50
2020/12/31 00:11:51;;;;;;;0.60;0.60;;;;;;;;;;5073373;28;20218;-50
2020/12/31 00:14:17;;;;;;;0.85;0.80;;;;;;;;;;5073664;28;20179;-50
2020/12/31 00:16:43;;;;;;;0.73;0.73;;;;;;;;;;5073690;28;20656;-49
2020/12/31 00:19:09;;;;;;;1.00;0.93;;;;;;;;;;5073826;28;20224;-51
2020/12/31 00:21:35;;;;;;;1.98;0.80;;;;;;;;;;5073670;28;20209;-50
2020/12/31 00:24:01;;;;;;;0.98;0.85;;;;;;;;;;5073551;28;20214;-50
2020/12/31 00:26:27;;;;;;;1.00;0.90;;;;;;;;;;5072765;28;20186;-49
2020/12/31 00:28:53;;;;;;;0.90;0.90;;;;;;;;;;5073667;28;20182;-49
2020/12/31 00:31:19;;;;;;;1.48;0.85;;;;;;;;;;5073554;28;20523;-49
2020/12/31 00:33:45;;;;;;;0.75;0.75;;;;;;;;;;5073910;28;20201;-49
2020/12/31 00:36:11;;;;;;;1.27;0.70;;;;;;;;;;5072973;28;20183;-50
2020/12/31 00:38:36;;;;;;;1.00;0.77;;;;;;;;;;5072539;28;20190;-49
2020/12/31 00:41:02;;;;;;;1.27;0.80;;;;;;;;;;5073499;28;20187;-50
2020/12/31 00:43:28;;;;;;;0.85;0.85;;;;;;;;;;5073399;28;20449;-49
2020/12/31 00:45:55;;;;;;;0.80;0.80;;;;;;;;;;5073581;28;20182;-49
2020/12/31 00:48:21;;;;;;;1.08;0.68;;;;;;;;;;5073716;28;20178;-50
2020/12/31 00:50:47;;;;;;;0.82;0.82;;;;;;;;;;5073461;28;20186;-50
2020/12/31 00:53:13;;;;;;;1.05;0.60;;;;;;;;;;5073079;28;20206;-50
2020/12/31 00:55:39;;;;;;;0.63;0.63;;;;;;;;;;5072869;28;20174;-49
2020/12/31 00:58:05;;;;;;;1.15;0.88;;;;;;;;;;5073594;28;20214;-49
2020/12/31 01:00:31;;;;;;;0.85;0.85;;;;;;;;;;5073437;28;20178;-49
2020/12/31 01:02:58;;;;;;;0.88;0.80;;;;;;;;;;5074034;28;20655;-49
2020/12/31 01:05:24;;;;;;;0.65;0.65;;;;;;;;;;5072448;28;20198;-49
2020/12/31 01:07:52;;;;;;;0.70;0.70;;;;;;;;;;5072675;28;20514;-49
2020/12/31 01:10:17;;;;;;;0.80;0.80;;;;;;;;;;5073636;28;20807;-49
2020/12/31 01:12:43;;;;;;;0.95;0.90;;;;;;;;;;5072966;28;20205;-49
2020/12/31 01:15:09;;;;;;;0.77;0.70;;;;;;;;;;5070469;28;20270;-49
2020/12/31 01:17:35;;;;;;;0.88;0.88;;;;;;;;;;5072631;28;20179;-50
2020/12/31 01:20:02;;;;;;;0.80;0.80;;;;;;;;;;5073490;28;20182;-49
2020/12/31 01:22:28;;;;;;;1.92;0.70;;;;;;;;;;5072212;28;20209;-49
2020/12/31 01:24:54;;;;;;;0.80;0.70;;;;;;;;;;5072861;28;20538;-49
2020/12/31 01:27:20;;;;;;;0.93;0.90;;;;;;;;;;5073476;28;20182;-49
2020/12/31 01:29:46;;;;;;;1.55;0.82;;;;;;;;;;5072900;28;20269;-50
2020/12/31 01:32:12;;;;;;;0.70;0.70;;;;;;;;;;5073152;28;20245;-49
2020/12/31 01:34:38;;;;;;;0.80;0.80;;;;;;;;;;5072365;28;20271;-49
2020/12/31 01:37:04;;;;;;;0.82;0.80;;;;;;;;;;5072419;28;20194;-49
2020/12/31 01:39:30;;;;;;;0.80;0.70;;;;;;;;;;5072641;28;20293;-50
2020/12/31 01:42:06;;;;;;;1.33;0.77;;;;;;;;;;5072226;28;20544;-50
2020/12/31 01:44:32;;;;;;;1.23;0.73;;;;;;;;;;5056546;28;20190;-49
2020/12/31 01:47:00;;;;;;;0.60;0.60;;;;;;;;;;5072900;28;20183;-50
2020/12/31 01:49:27;;;;;;;0.77;0.77;;;;;;;;;;5071786;28;20175;-50
2020/12/31 01:51:53;;;;;;;0.98;0.60;;;;;;;;;;5072932;28;20209;-49
2020/12/31 01:54:18;;;;;;;0.85;0.85;;;;;;;;;;5072438;28;20703;-49
2020/12/31 01:56:45;;;;;;;0.70;0.70;;;;;;;;;;5075254;28;20198;-49
2020/12/31 01:59:14;;;;;;;0.75;0.75;;;;;;;;;;5076807;28;20195;-50
2020/12/31 02:01:40;;;;;;;0.70;0.70;;;;;;;;;;5076113;28;20189;-49
2020/12/31 02:04:06;;;;;;;0.70;0.70;;;;;;;;;;5074663;28;20190;-49
2020/12/31 02:06:33;;;;;;;1.33;0.80;;;;;;;;;;5075266;28;20229;-49
2020/12/31 02:08:59;;;;;;;0.60;0.60;;;;;;;;;;5074817;28;20214;-49
2020/12/31 02:11:26;;;;;;;0.90;0.70;;;;;;;;;;5076270;28;20181;-50
2020/12/31 02:13:52;;;;;;;0.50;0.50;;;;;;;;;;5075437;28;20212;-49
2020/12/31 02:16:19;;;;;;;0.80;0.70;;;;;;;;;;5075728;28;20262;-49
2020/12/31 02:18:49;;;;;;;0.60;0.60;;;;;;;;;;5075759;28;20189;-49
2020/12/31 02:21:17;;;;;;;0.70;0.70;;;;;;;;;;5076333;28;20220;-49
2020/12/31 02:23:43;;;;;;;0.65;0.65;;;;;;;;;;5076113;28;20582;-50
2020/12/31 02:26:09;;;;;;;0.73;0.73;;;;;;;;;;5075037;28;20179;-50
2020/12/31 02:28:35;;;;;;;0.60;0.60;;;;;;;;;;5076029;28;20182;-50
2020/12/31 02:31:01;;;;;;;0.70;0.70;;;;;;;;;;5076051;28;20235;-50
2020/12/31 02:33:27;;;;;;;0.70;0.70;;;;;;;;;;5075037;28;20213;-50
2020/12/31 02:35:53;;;;;;;0.70;0.70;;;;;;;;;;5075404;28;20504;-50
2020/12/31 02:38:19;;;;;;;0.43;0.43;;;;;;;;;;5076100;28;20190;-50
2020/12/31 02:40:45;;;;;;;0.70;0.70;;;;;;;;;;5075662;28;20188;-49
2020/12/31 02:43:11;;;;;;;0.60;0.60;;;;;;;;;;5075434;28;20178;-50
2020/12/31 02:45:37;;;;;;;0.60;0.60;;;;;;;;;;5074663;28;20582;-50
2020/12/31 02:48:03;;;;;;;0.60;0.60;;;;;;;;;;5075391;28;20267;-50
2020/12/31 02:50:29;;;;;;;0.60;0.60;;;;;;;;;;5075502;28;20257;-49
2020/12/31 02:52:55;;;;;;;0.80;0.80;;;;;;;;;;5075801;28;20596;-50
2020/12/31 02:55:21;;;;;;;0.52;0.52;;;;;;;;;;5074760;28;20442;-50
2020/12/31 02:57:46;;;;;;;0.73;0.73;;;;;;;;;;5074631;28;20232;-50
2020/12/31 03:00:12;;;;;;;0.70;0.70;;;;;;;;;;5075351;28;20186;-50
2020/12/31 03:02:38;;;;;;;0.70;0.70;;;;;;;;;;5074855;28;20182;-50
2020/12/31 03:05:04;;;;;;;1.00;0.77;;;;;;;;;;5074657;28;20182;-50
2020/12/31 03:07:30;;;;;;;0.73;0.73;;;;;;;;;;5073714;28;20787;-50
2020/12/31 03:09:56;;;;;;;1.02;0.77;;;;;;;;;;5075423;28;20252;-49
2020/12/31 03:12:22;;;;;;;0.50;0.50;;;;;;;;;;5075446;28;20241;-49
2020/12/31 03:14:48;;;;;;;0.65;0.65;;;;;;;;;;5073472;28;20204;-49
2020/12/31 03:17:14;;;;;;;0.47;0.47;;;;;;;;;;5075057;28;20478;-50
2020/12/31 03:19:40;;;;;;;0.77;0.75;;;;;;;;;;5074730;28;20174;-49
2020/12/31 03:22:06;;;;;;;0.60;0.60;;;;;;;;;;5075598;28;20227;-50
2020/12/31 03:24:32;;;;;;;0.60;0.60;;;;;;;;;;5073489;28;20409;-49
2020/12/31 03:26:58;;;;;;;0.60;0.60;;;;;;;;;;5075064;28;20182;-49
2020/12/31 03:29:24;;;;;;;0.52;0.52;;;;;;;;;;5074773;28;20583;-49
2020/12/31 03:31:50;;;;;;;0.65;0.60;;;;;;;;;;5075057;28;20461;-49
2020/12/31 03:34:16;;;;;;;0.60;0.60;;;;;;;;;;5072778;28;20239;-50
2020/12/31 03:36:42;;;;;;;0.60;0.60;;;;;;;;;;5073745;28;20181;-49
2020/12/31 03:39:08;;;;;;;0.60;0.60;;;;;;;;;;5073767;28;20719;-49
2020/12/31 03:41:34;;;;;;;0.63;0.63;;;;;;;;;;5073881;28;20193;-49
2020/12/31 03:43:59;;;;;;;0.60;0.60;;;;;;;;;;5073114;28;20182;-49
2020/12/31 03:46:25;;;;;;;0.70;0.70;;;;;;;;;;5073571;28;20183;-50
2020/12/31 03:48:51;;;;;;;0.70;0.70;;;;;;;;;;5054796;28;20179;-49
2020/12/31 03:51:17;;;;;;;0.50;0.50;;;;;;;;;;5073728;28;20193;-50
2020/12/31 03:53:44;;;;;;;0.60;0.60;;;;;;;;;;5073514;28;20596;-50
2020/12/31 03:56:10;;;;;;;0.60;0.60;;;;;;;;;;5073570;28;20495;-49
2020/12/31 03:58:35;;;;;;;0.50;0.50;;;;;;;;;;5073838;28;20196;-49
2020/12/31 04:01:01;;;;;;;0.98;0.70;;;;;;;;;;5074510;28;20182;-49
2020/12/31 04:03:27;;;;;;;0.93;0.40;;;;;;;;;;5072752;28;20194;-50
2020/12/31 04:05:53;;;;;;;0.60;0.60;;;;;;;;;;5073827;28;20194;-49
2020/12/31 04:08:19;;;;;;;2.13;0.70;;;;;;;;;;5074591;28;20220;-50
2020/12/31 04:10:45;;;;;;;0.68;0.68;;;;;;;;;;5073686;28;20217;-49
2020/12/31 04:13:11;;;;;;;1.30;0.47;;;;;;;;;;5073644;28;20566;-49
2020/12/31 04:15:37;;;;;;;0.77;0.60;;;;;;;;;;5073143;28;20197;-49
2020/12/31 04:18:03;;;;;;;0.55;0.55;;;;;;;;;;5073609;28;20212;-49
2020/12/31 04:20:29;;;;;;;0.60;0.60;;;;;;;;;;5070112;28;20572;-49
2020/12/31 04:22:55;;;;;;;0.50;0.50;;;;;;;;;;5073690;28;20197;-51
2020/12/31 04:25:21;;;;;;;0.50;0.50;;;;;;;;;;5073757;28;20187;-49
2020/12/31 04:27:47;;;;;;;0.57;0.57;;;;;;;;;;5073452;28;20185;-50
2020/12/31 04:30:13;;;;;;;0.45;0.45;;;;;;;;;;5070501;28;20186;-49
2020/12/31 04:32:39;;;;;;;0.52;0.52;;;;;;;;;;5054112;28;20586;-49
2020/12/31 04:35:05;;;;;;;0.60;0.60;;;;;;;;;;5071314;28;20182;-49
2020/12/31 04:37:31;;;;;;;0.50;0.50;;;;;;;;;;5073191;28;20473;-49
2020/12/31 04:39:57;;;;;;;0.50;0.50;;;;;;;;;;5073543;28;20189;-50
2020/12/31 04:42:23;;;;;;;0.70;0.43;;;;;;;;;;5073846;28;20240;-49
2020/12/31 04:44:49;;;;;;;0.57;0.57;;;;;;;;;;5072423;28;20492;-49
2020/12/31 04:47:19;;;;;;;0.70;0.70;;;;;;;;;;5073914;28;20198;-49
2020/12/31 04:49:48;;;;;;;0.80;0.60;;;;;;;;;;5072728;28;20190;-49
2020/12/31 04:52:14;;;;;;;0.88;0.55;;;;;;;;;;5073842;28;20206;-49
2020/12/31 04:54:40;;;;;;;0.47;0.47;;;;;;;;;;5072465;28;20182;-49
2020/12/31 04:57:06;;;;;;;0.98;0.60;;;;;;;;;;5073296;28;20296;-50
2020/12/31 04:59:33;;;;;;;1.40;0.57;;;;;;;;;;5073576;28;20213;-49
2020/12/31 05:01:59;;;;;;;0.50;0.50;;;;;;;;;;5074071;28;20186;-49
2020/12/31 05:04:25;;;;;;;0.70;0.70;;;;;;;;;;5072106;28;20205;-50
2020/12/31 05:06:54;;;;;;;0.50;0.50;;;;;;;;;;5073667;28;20277;-49
2020/12/31 05:09:21;;;;;;;0.60;0.60;;;;;;;;;;5073777;28;20257;-49
2020/12/31 05:11:48;;;;;;;0.55;0.55;;;;;;;;;;5073507;28;20179;-49
2020/12/31 05:14:25;;;;;;;0.43;0.43;;;;;;;;;;5072416;28;20193;-49
2020/12/31 05:16:51;;;;;;;0.65;0.65;;;;;;;;;;5073578;28;20189;-50
2020/12/31 05:19:25;;;;;;;0.40;0.40;;;;;;;;;;5073657;28;20285;-49
2020/12/31 05:22:11;;;;;;;0.77;0.60;;;;;;;;;;5073206;28;20231;-50
2020/12/31 05:24:37;;;;;;;0.60;0.60;;;;;;;;;;5071160;28;20178;-49
2020/12/31 05:27:21;;;;;;;0.55;0.50;;;;;;;;;;5066027;28;20217;-50
2020/12/31 05:29:58;;;;;;;0.40;0.40;;;;;;;;;;5073125;28;20182;-50
2020/12/31 05:32:24;;;;;;;0.43;0.40;;;;;;;;;;5076784;28;20332;-50
2020/12/31 05:34:52;;;;;;;0.60;0.60;;;;;;;;;;5075701;28;20265;-49
2020/12/31 05:37:19;;;;;;;0.50;0.50;;;;;;;;;;5076926;28;20453;-49
2020/12/31 05:39:55;;;;;;;0.50;0.50;;;;;;;;;;5076882;28;20186;-51
2020/12/31 05:42:22;;;;;;;0.40;0.40;;;;;;;;;;5077300;28;20178;-50
2020/12/31 05:45:05;;;;;;;0.40;0.40;;;;;;;;;;5075551;28;20263;-49
2020/12/31 05:47:32;;;;;;;0.68;0.35;;;;;;;;;;5075688;28;20219;-50
2020/12/31 05:49:58;;;;;;;0.50;0.50;;;;;;;;;;5076865;28;20183;-50
2020/12/31 05:52:37;;;;;;;0.55;0.55;;;;;;;;;;5076912;28;20247;-50
2020/12/31 05:55:05;;;;;;;0.60;0.60;;;;;;;;;;5075115;28;20269;-50
2020/12/31 05:57:54;;;;;;;0.40;0.40;;;;;;;;;;5076249;28;20220;-50
2020/12/31 06:00:27;;;;;;;0.40;0.40;;;;;;;;;;5063525;28;20186;-51
2020/12/31 06:02:54;;;;;;;0.75;0.70;;;;;;;;;;5076323;28;20495;-51
2020/12/31 06:05:21;;;;;;;0.40;0.40;;;;;;;;;;5076239;28;20231;-50
2020/12/31 06:07:47;;;;;;;0.52;0.47;;;;;;;;;;5075335;28;20182;-50
2020/12/31 06:10:17;;;;;;;0.60;0.60;;;;;;;;;;5076709;28;20669;-50
2020/12/31 06:12:57;;;;;;;0.40;0.40;;;;;;;;;;5073794;28;20202;-50
2020/12/31 06:15:26;;;;;;;0.40;0.40;;;;;;;;;;5075491;28;20182;-50
2020/12/31 06:17:53;;;;;;;0.40;0.32;;;;;;;;;;5075898;28;20194;-50
2020/12/31 06:20:20;;;;;;;0.50;0.50;;;;;;;;;;5076191;28;20626;-50
2020/12/31 06:22:58;;;;;;;0.32;0.32;;;;;;;;;;5075197;28;20183;-51
2020/12/31 06:25:30;;;;;;;0.70;0.60;;;;;;;;;;5075813;28;20223;-50
2020/12/31 06:27:58;;;;;;;0.43;0.43;;;;;;;;;;5075589;28;20186;-52
2020/12/31 06:30:26;;;;;;;0.70;0.70;;;;;;;;;;5076328;28;20187;-50
2020/12/31 06:32:53;;;;;;;1.00;0.65;;;;;;;;;;5075097;28;20206;-50
2020/12/31 06:35:19;;;;;;;2.15;0.98;;;;;;;;;;5075717;28;20178;-50
2020/12/31 06:37:56;;;;;;;1.52;0.70;;;;;;;;;;5075502;28;20523;-50
2020/12/31 06:40:26;;;;;;;2.45;0.50;;;;;;;;;;5075745;28;20187;-52
2020/12/31 06:43:06;;;;;;;2.78;0.65;;;;;;;;;;5073727;28;20186;-51
2020/12/31 06:45:52;;;;;;;3.58;0.77;;;;;;;;;;5074965;28;20556;-51
2020/12/31 06:48:27;;;;;;;1.38;0.70;;;;;;;;;;5071822;28;20206;-52
2020/12/31 06:50:54;;;;;;;1.15;0.65;;;;;;;;;;5076103;28;20187;-54
2020/12/31 06:53:35;;;;;;;1.13;0.75;;;;;;;;;;5074986;28;20209;-55
2020/12/31 06:56:05;;;;;;;1.88;0.65;;;;;;;;;;5074711;28;20220;-51
2020/12/31 06:58:32;;;;;;;2.28;0.60;;;;;;;;;;5075367;28;20742;-50
2020/12/31 07:00:58;;;;;;;4.50;0.80;;;;;;;;;;5075368;28;20459;-50
2020/12/31 07:03:42;;;;;;;0.60;0.50;;;;;;;;;;5068143;28;20183;-52
2020/12/31 07:06:25;;;;;;;10.02;1.13;;;;;;;;;;5065783;28;20198;-57
2020/12/31 07:08:52;;;;;;;8.38;1.15;;;;;;;;;;5075221;28;20190;-49
2020/12/31 07:11:28;;;;;;;30.05;2.28;;;;;;;;;;5071015;28;20182;-49
2020/12/31 07:13:55;;;;;;;3.15;0.90;;;;;;;;;;5066358;28;20271;-45
2020/12/31 07:16:40;;;;;;;5.05;0.80;;;;;;;;;;5075082;28;20199;-49
2020/12/31 07:19:07;;;;;;;2.47;0.80;;;;;;;;;;5075309;28;20182;-50
2020/12/31 07:21:35;;;;;;;1.90;0.90;;;;;;;;;;5070537;28;20183;-49
2020/12/31 07:24:20;;;;;;;0.60;0.57;;;;;;;;;;5073108;28;20221;-49
2020/12/31 07:26:46;;;;;;;0.88;0.60;;;;;;;;;;5074486;28;20214;-50
2020/12/31 07:29:12;;;;;;;3.30;0.70;;;;;;;;;;5074950;28;20510;-49
2020/12/31 07:31:40;;;;;;;0.68;0.68;;;;;;;;;;5074464;28;20195;-48
2020/12/31 07:34:22;;;;;;;1.17;0.80;;;;;;;;;;5073692;28;20183;-50
2020/12/31 07:37:05;;;;;;;0.75;0.73;;;;;;;;;;5074234;28;20194;-50
2020/12/31 07:39:32;;;;;;;1.95;0.80;;;;;;;;;;5074481;28;20185;-49
2020/12/31 07:42:10;;;;;;;1.48;0.65;;;;;;;;;;5074771;28;20198;-48
2020/12/31 07:44:36;;;;;;;1.35;0.80;;;;;;;;;;5073411;28;20261;-48
2020/12/31 07:47:02;;;;;;;1.75;1.05;;;;;;;;;;5074220;28;20312;-48
2020/12/31 07:49:28;;;;;;;2.70;1.02;;;;;;;;;;5072008;28;20217;-49
2020/12/31 07:52:00;;;;;;;2.42;0.85;;;;;;;;;;5074449;28;20554;-49
2020/12/31 07:54:26;;;;;;;2.30;0.98;;;;;;;;;;5072201;28;20175;-49
2020/12/31 07:56:52;;;;;;;2.08;1.00;;;;;;;;;;5074466;28;20482;-47
2020/12/31 07:59:19;;;;;;;3.30;1.30;;;;;;;;;;5074485;28;20194;-46
2020/12/31 08:01:45;;;;;;;4.47;0.80;;;;;;;;;;5056299;28;20179;-46
2020/12/31 08:04:11;;;;;;;6.20;1.67;;;;;;;;;;5066070;28;20197;-47
2020/12/31 08:06:37;;;;;;;6.22;1.48;;;;;;;;;;5073515;28;20218;-48
2020/12/31 08:09:04;;;;;;;8.30;1.08;;;;;;;;;;5073779;28;20589;-48
2020/12/31 08:11:30;;;;;;;2.65;1.08;;;;;;;;;;5073969;28;20557;-48
2020/12/31 08:14:05;;;;;;;3.08;1.10;;;;;;;;;;5073436;28;20226;-48
2020/12/31 08:16:31;;;;;;;26.88;15.40;;;;;;;;;;5062941;28;20190;-48
2020/12/31 08:18:57;;;;;;;33.00;20.77;;;;;;;;;;5058820;28;20190;-48
2020/12/31 08:21:24;;;;;;;44.60;26.92;;;;;;;;;;5066268;28;20269;-48
2020/12/31 08:23:56;;;;;;;45.33;28.23;;;;;;;;;;5063940;28;20178;-47
2020/12/31 08:26:22;;;;;;;48.33;29.08;;;;;;;;;;5070482;28;20218;-48
2020/12/31 08:28:49;;;;;;;60.97;32.47;;;;;;;;;;5062667;28;20225;-48
2020/12/31 08:31:16;;;;;;;146.02;56.78;;;;;;;;;;5060957;28;20190;-47
2020/12/31 08:33:43;;;;;;;339.38;122.15;;;;;;;;;;5071657;28;20241;-47
2020/12/31 08:36:09;;;;;;;484.48;191.60;;;;;;;;;;5054097;28;20198;-48
2020/12/31 08:38:38;;;;;;;486.75;195.27;;;;;;;;;;5070195;28;20270;-48
2020/12/31 08:41:08;;;;;;;483.90;201.07;;;;;;;;;;5059404;28;20184;-48
2020/12/31 08:43:38;;;;;;;480.73;197.80;;;;;;;;;;5063419;28;20221;-48
2020/12/31 08:46:05;;;;;;;467.48;192.82;;;;;;;;;;5058803;28;20211;-48
2020/12/31 08:48:32;;;;;;;468.23;194.10;;;;;;;;;;5063833;28;20193;-48
2020/12/31 08:51:03;;;;;;;461.02;195.63;;;;;;;;;;5066543;28;20642;-48
2020/12/31 08:53:29;;;;;;;455.90;188.93;;;;;;;;;;5062365;28;20288;-48
2020/12/31 08:55:55;;;;;;;447.48;185.90;;;;;;;;;;5062115;28;20202;-48
2020/12/31 08:58:26;;;;;;;420.73;177.48;;;;;;;;;;5064391;28;20179;-48
2020/12/31 09:00:52;;;;;;;408.92;168.07;;;;;;;;;;5068400;28;20216;-48
2020/12/31 09:03:19;;;;;;;403.00;157.60;;;;;;;;;;5065211;28;20178;-49
2020/12/31 09:05:55;;;;;;;385.60;141.07;;;;;;;;;;5081080;28;20213;-48
2020/12/31 09:08:21;;;;;;;347.50;138.07;;;;;;;;;;5074010;28;20204;-48
2020/12/31 09:10:47;;;;;;;348.60;132.98;;;;;;;;;;5066649;28;20191;-48
2020/12/31 09:13:20;;;;;;;305.50;122.53;;;;;;;;;;5071943;28;20206;-47
2020/12/31 09:15:46;;;;;;;284.33;109.05;;;;;;;;;;5067090;28;20233;-47
2020/12/31 09:18:18;;;;;;;284.25;113.65;;;;;;;;;;5070882;28;20190;-47
2020/12/31 09:20:44;;;;;;;246.90;96.95;;;;;;;;;;5062459;28;20345;-47
2020/12/31 09:23:11;;;;;;;250.23;96.95;;;;;;;;;;5071350;28;20193;-47
2020/12/31 09:25:50;;;;;;;224.95;89.97;;;;;;;;;;5061113;28;20194;-47
2020/12/31 09:28:16;;;;;;;204.52;81.90;;;;;;;;;;5064732;28;20197;-47
2020/12/31 09:30:42;;;;;;;209.95;79.90;;;;;;;;;;5067812;28;20230;-47
2020/12/31 09:33:08;;;;;;;195.10;76.82;;;;;;;;;;5075994;28;20516;-47
2020/12/31 09:35:34;;;;;;;187.80;73.60;;;;;;;;;;5081572;28;20185;-47
2020/12/31 09:38:00;;;;;;;181.60;71.32;;;;;;;;;;5066131;28;20320;-47
2020/12/31 09:40:26;;;;;;;177.02;70.90;;;;;;;;;;5062956;28;20187;-47
2020/12/31 09:42:52;;;;;;;201.52;74.22;;;;;;;;;;5057528;28;20191;-47
2020/12/31 09:45:19;;;;;;;197.02;71.95;;;;;;;;;;5074045;28;20187;-47
2020/12/31 09:47:45;;;;;;;195.15;73.85;;;;;;;;;;5065805;28;20206;-47
2020/12/31 09:50:11;;;;;;;205.80;73.93;;;;;;;;;;5067982;28;20182;-47
2020/12/31 09:52:38;;;;;;;200.85;72.05;;;;;;;;;;5068021;28;20202;-47
2020/12/31 09:55:06;;;;;;;204.25;70.57;;;;;;;;;;5052952;28;20709;-47
2020/12/31 09:57:32;;;;;;;188.43;65.82;;;;;;;;;;5069368;28;20198;-47
2020/12/31 09:59:58;;;;;;;192.32;66.43;;;;;;;;;;5075566;28;20265;-47
2020/12/31 10:02:24;;;;;;;156.35;53.63;;;;;;;;;;5068186;28;20227;-47
2020/12/31 10:04:50;;;;;;;158.30;56.65;;;;;;;;;;5073187;28;20186;-46
2020/12/31 10:07:16;;;;;;;136.88;54.35;;;;;;;;;;5073606;28;20228;-46
2020/12/31 10:09:42;;;;;;;131.18;50.25;;;;;;;;;;5073171;28;20270;-47
2020/12/31 10:12:08;;;;;;;128.70;47.13;;;;;;;;;;5066813;28;20254;-47
2020/12/31 10:14:35;;;;;;;127.60;48.05;;;;;;;;;;5065768;28;20557;-47
2020/12/31 10:17:01;;;;;;;114.28;43.45;;;;;;;;;;5070602;28;20239;-47
2020/12/31 10:19:27;;;;;;;107.10;41.28;;;;;;;;;;5073396;28;20190;-47
2020/12/31 10:21:53;;;;;;;106.75;41.13;;;;;;;;;;5066740;28;20214;-47
2020/12/31 10:24:19;;;;;;;102.28;39.88;;;;;;;;;;5073492;28;20178;-47
2020/12/31 10:26:46;;;;;;;98.07;37.20;;;;;;;;;;5063197;28;20645;-47
2020/12/31 10:29:15;;;;;;;98.13;35.72;;;;;;;;;;5069915;28;20450;-47
2020/12/31 10:31:42;;;;;;;87.28;34.63;;;;;;;;;;5067104;28;20187;-47
2020/12/31 10:34:09;;;;;;;77.88;34.97;;;;;;;;;;5061857;28;20202;-47
2020/12/31 10:36:35;;;;;;;79.55;31.95;;;;;;;;;;5075090;28;20627;-47
2020/12/31 10:39:02;;;;;;;70.82;30.33;;;;;;;;;;5070464;28;20194;-47
2020/12/31 10:41:29;;;;;;;73.72;30.63;;;;;;;;;;5076487;28;20186;-47
2020/12/31 10:43:56;;;;;;;64.15;28.92;;;;;;;;;;5081757;28;20170;-47
2020/12/31 10:46:23;;;;;;;62.38;28.38;;;;;;;;;;5082257;28;20201;-47
2020/12/31 10:48:49;;;;;;;71.07;29.95;;;;;;;;;;5074249;28;20189;-47
2020/12/31 10:51:15;;;;;;;68.60;30.65;;;;;;;;;;5070119;28;20179;-47
2020/12/31 10:53:41;;;;;;;58.80;27.88;;;;;;;;;;5078390;28;20202;-47
2020/12/31 10:56:07;;;;;;;70.20;30.50;;;;;;;;;;5070552;28;20252;-47
2020/12/31 10:58:35;;;;;;;60.90;30.33;;;;;;;;;;5074440;28;20555;-47
2020/12/31 11:01:02;;;;;;;58.40;28.48;;;;;;;;;;5074037;28;20170;-51
2020/12/31 11:03:28;;;;;;;64.72;27.88;;;;;;;;;;5068718;28;20305;-47
2020/12/31 11:05:54;;;;;;;56.22;26.55;;;;;;;;;;5065219;28;20187;-47
2020/12/31 11:08:20;;;;;;;50.47;25.15;;;;;;;;;;5063009;28;20233;-47
2020/12/31 11:10:47;;;;;;;56.33;26.00;;;;;;;;;;5060854;28;20216;-47
2020/12/31 11:13:13;;;;;;;51.58;24.45;;;;;;;;;;5068022;28;20289;-47
2020/12/31 11:15:40;;;;;;;49.97;23.67;;;;;;;;;;5067262;28;20261;-47
2020/12/31 11:18:06;;;;;;;44.58;23.52;;;;;;;;;;5070485;28;20241;-47
2020/12/31 11:20:32;;;;;;;44.38;22.27;;;;;;;;;;5061750;28;20213;-47
2020/12/31 11:22:59;;;;;;;47.95;22.10;;;;;;;;;;5068584;28;20506;-46
2020/12/31 11:25:25;;;;;;;41.63;21.65;;;;;;;;;;5062166;28;20224;-46
2020/12/31 11:27:51;;;;;;;46.70;21.27;;;;;;;;;;5063434;28;20183;-47
2020/12/31 11:30:17;;;;;;;43.75;21.30;;;;;;;;;;5067643;28;20193;-46
2020/12/31 11:32:43;;;;;;;40.80;20.63;;;;;;;;;;5055992;28;20597;-46
2020/12/31 11:35:09;;;;;;;39.42;19.98;;;;;;;;;;5062536;28;20192;-47
2020/12/31 11:37:36;;;;;;;38.33;19.55;;;;;;;;;;5066057;28;20190;-47
2020/12/31 11:40:03;;;;;;;36.97;18.33;;;;;;;;;;5054897;28;20187;-47
2020/12/31 11:42:33;;;;;;;36.85;18.80;;;;;;;;;;5069281;28;20187;-47
2020/12/31 11:45:03;;;;;;;33.88;17.42;;;;;;;;;;5074039;28;20182;-47
2020/12/31 11:47:29;;;;;;;33.58;16.25;;;;;;;;;;5073790;28;20194;-47
2020/12/31 11:49:55;;;;;;;30.95;15.32;;;;;;;;;;5073738;28;20274;-47
2020/12/31 11:52:21;;;;;;;29.75;15.50;;;;;;;;;;5071623;28;20202;-47
2020/12/31 11:54:47;;;;;;;28.65;14.82;;;;;;;;;;5061101;28;20197;-46
2020/12/31 11:57:13;;;;;;;27.17;13.05;;;;;;;;;;5073069;28;20195;-47
2020/12/31 11:59:40;;;;;;;27.15;13.80;;;;;;;;;;5073695;28;20189;-47
2020/12/31 12:02:08;;;;;;;29.50;14.65;;;;;;;;;;5056449;28;20179;-47
2020/12/31 12:04:35;;;;;;;30.95;14.85;;;;;;;;;;5057586;28;20189;-46
2020/12/31 12:07:01;;;;;;;37.72;16.45;;;;;;;;;;5059549;28;20504;-47
2020/12/31 12:09:27;;;;;;;45.17;16.95;;;;;;;;;;5054159;28;20197;-47
2020/12/31 12:11:53;;;;;;;54.97;18.23;;;;;;;;;;5068809;28;20178;-47
2020/12/31 12:14:19;;;;;;;75.35;20.88;;;;;;;;;;5073434;28;20285;-47
2020/12/31 12:16:49;;;;;;;82.40;25.50;;;;;;;;;;5070025;28;20297;-47
2020/12/31 12:19:15;;;;;;;87.50;24.60;;;;;;;;;;5072686;28;20182;-47
2020/12/31 12:21:41;;;;;;;83.03;25.13;;;;;;;;;;5063411;28;20190;-47
2020/12/31 12:24:07;;;;;;;80.05;23.75;;;;;;;;;;5073267;28;20232;-46
2020/12/31 12:26:37;;;;;;;77.78;24.88;;;;;;;;;;5072048;28;20269;-46
2020/12/31 12:29:03;;;;;;;75.35;23.88;;;;;;;;;;5073553;28;20193;-47
2020/12/31 12:31:30;;;;;;;71.50;22.35;;;;;;;;;;5072229;28;20194;-47
2020/12/31 12:33:56;;;;;;;75.35;22.75;;;;;;;;;;5067270;28;20529;-47
2020/12/31 12:36:22;;;;;;;69.20;22.70;;;;;;;;;;5060638;28;20653;-47
2020/12/31 12:38:48;;;;;;;69.55;23.40;;;;;;;;;;5056928;28;20332;-47
2020/12/31 12:41:14;;;;;;;79.88;23.23;;;;;;;;;;5061824;28;20183;-46
2020/12/31 12:43:40;;;;;;;65.78;20.95;;;;;;;;;;5073078;28;20208;-47
2020/12/31 12:46:06;;;;;;;67.20;20.77;;;;;;;;;;5072744;28;20189;-47
2020/12/31 12:48:32;;;;;;;59.08;20.13;;;;;;;;;;5072055;28;20423;-47
2020/12/31 12:50:58;;;;;;;59.65;19.35;;;;;;;;;;5066601;28;20569;-47
2020/12/31 12:53:25;;;;;;;47.13;18.15;;;;;;;;;;5064796;28;20272;-47
2020/12/31 12:55:50;;;;;;;59.53;18.02;;;;;;;;;;5065302;28;20174;-47
2020/12/31 12:58:16;;;;;;;49.13;16.73;;;;;;;;;;5073532;28;20197;-47
2020/12/31 13:00:43;;;;;;;46.60;15.27;;;;;;;;;;5072436;28;20174;-47
2020/12/31 13:03:09;;;;;;;47.28;16.58;;;;;;;;;;5073345;28;20542;-47
2020/12/31 13:05:35;;;;;;;48.90;16.17;;;;;;;;;;5069010;28;20185;-47
2020/12/31 13:08:01;;;;;;;60.10;19.17;;;;;;;;;;5053554;28;20171;-48
2020/12/31 13:10:28;;;;;;;86.53;26.75;;;;;;;;;;5056561;28;20542;-47
2020/12/31 13:12:54;;;;;;;91.38;27.90;;;;;;;;;;5072985;28;20208;-47
2020/12/31 13:15:20;;;;;;;83.47;27.83;;;;;;;;;;5071968;28;20187;-47
2020/12/31 13:17:46;;;;;;;93.60;27.30;;;;;;;;;;5065839;28;20182;-47
2020/12/31 13:20:12;;;;;;;71.45;26.00;;;;;;;;;;5071559;28;20228;-47
2020/12/31 13:22:38;;;;;;;76.25;22.77;;;;;;;;;;5072115;28;20194;-47
2020/12/31 13:25:04;;;;;;;68.05;23.15;;;;;;;;;;5072801;28;20240;-47
2020/12/31 13:27:30;;;;;;;60.25;21.13;;;;;;;;;;5072129;28;20464;-47
2020/12/31 13:29:56;;;;;;;52.38;19.23;;;;;;;;;;5073541;28;20175;-47
2020/12/31 13:32:22;;;;;;;53.25;19.38;;;;;;;;;;5037421;28;20232;-48
2020/12/31 13:34:48;;;;;;;51.58;17.52;;;;;;;;;;5053059;28;20621;-47
2020/12/31 13:37:14;;;;;;;41.17;15.63;;;;;;;;;;5070726;28;20183;-47
2020/12/31 13:39:40;;;;;;;37.70;14.65;;;;;;;;;;5072598;28;20546;-47
2020/12/31 13:42:07;;;;;;;37.65;13.55;;;;;;;;;;5058181;28;20186;-47
2020/12/31 13:44:33;;;;;;;34.88;12.68;;;;;;;;;;5062758;28;20190;-47
2020/12/31 13:46:59;;;;;;;32.90;12.35;;;;;;;;;;5068881;28;20190;-47
2020/12/31 13:49:25;;;;;;;25.17;10.65;;;;;;;;;;5072175;28;20181;-47
2020/12/31 13:51:51;;;;;;;24.35;10.38;;;;;;;;;;5068144;28;20272;-47
2020/12/31 13:54:18;;;;;;;31.33;11.20;;;;;;;;;;5076652;28;20186;-47
2020/12/31 13:56:45;;;;;;;25.60;10.23;;;;;;;;;;5064787;28;20541;-47
2020/12/31 13:59:12;;;;;;;22.33;10.20;;;;;;;;;;5056910;28;20201;-46
2020/12/31 14:01:38;;;;;;;22.38;9.00;;;;;;;;;;5056810;28;20175;-46
2020/12/31 14:04:07;;;;;;;22.65;9.75;;;;;;;;;;5056514;28;20183;-46
2020/12/31 14:06:33;;;;;;;24.08;8.88;;;;;;;;;;5064839;28;20178;-46
2020/12/31 14:08:59;;;;;;;17.42;7.97;;;;;;;;;;5076295;28;20178;-46
2020/12/31 14:11:25;;;;;;;18.48;9.00;;;;;;;;;;5075797;28;20228;-47
2020/12/31 14:13:51;;;;;;;16.17;7.75;;;;;;;;;;5076601;28;20205;-46
2020/12/31 14:16:18;;;;;;;18.77;7.90;;;;;;;;;;5073823;28;20182;-46
2020/12/31 14:18:44;;;;;;;17.33;7.95;;;;;;;;;;5075678;28;20613;-46
2020/12/31 14:21:10;;;;;;;14.57;7.03;;;;;;;;;;5070852;28;20194;-46
2020/12/31 14:23:36;;;;;;;17.02;7.20;;;;;;;;;;5061888;28;20214;-46
2020/12/31 14:26:02;;;;;;;15.27;6.88;;;;;;;;;;5060089;28;20166;-48
2020/12/31 14:28:28;;;;;;;12.63;6.45;;;;;;;;;;5076182;28;20182;-46
2020/12/31 14:30:54;;;;;;;11.23;6.43;;;;;;;;;;5076037;28;20206;-47